Time;durP1;ratioP1;P1;durP2;ratioP2;P2;SDS_P1;SDS_P2;PMS_P1;PMS_P2;Temp;Humidity;BMP_temperature;BMP_pressure;BME280_temperature;BME280_humidity;BME280_pressure;Samples;Min_cycle;Max_cycle;Signal;HPM_P1;HPM_P2
2022/05/19 00:01:21;;;;;;;6.22;3.80;;;;;;;;;;5126447;27;21073;-17
2022/05/19 00:03:49;;;;;;;4.03;3.35;;;;;;;;;;5121532;27;20238;-17
2022/05/19 00:06:17;;;;;;;4.80;3.45;;;;;;;;;;5122566;27;20231;-17
2022/05/19 00:08:44;;;;;;;4.72;3.40;;;;;;;;;;5124027;27;20234;-17
2022/05/19 00:11:12;;;;;;;3.97;3.10;;;;;;;;;;5121858;27;20251;-17
2022/05/19 00:13:39;;;;;;;8.20;3.75;;;;;;;;;;5128757;27;21053;-17
2022/05/19 00:16:07;;;;;;;3.70;3.25;;;;;;;;;;5125526;27;20231;-17
2022/05/19 00:18:34;;;;;;;4.43;3.47;;;;;;;;;;5121256;27;20231;-17
2022/05/19 00:21:03;;;;;;;4.43;3.40;;;;;;;;;;5125085;27;20220;-16
2022/05/19 00:23:30;;;;;;;5.35;3.95;;;;;;;;;;5128002;27;21034;-16
2022/05/19 00:25:58;;;;;;;5.53;3.70;;;;;;;;;;5125058;27;20670;-16
2022/05/19 00:28:25;;;;;;;5.85;3.25;;;;;;;;;;5124483;27;20242;-17
2022/05/19 00:30:52;;;;;;;5.60;3.70;;;;;;;;;;5119984;27;20224;-17
2022/05/19 00:33:20;;;;;;;6.68;3.20;;;;;;;;;;5124010;27;20233;-17
2022/05/19 00:35:47;;;;;;;5.10;3.40;;;;;;;;;;5127351;27;20227;-17
2022/05/19 00:38:16;;;;;;;4.78;3.72;;;;;;;;;;5122128;27;20299;-17
2022/05/19 00:40:45;;;;;;;5.18;3.30;;;;;;;;;;5120355;27;20270;-17
2022/05/19 00:43:12;;;;;;;5.68;3.30;;;;;;;;;;5123491;27;20702;-16
2022/05/19 00:45:42;;;;;;;6.78;3.40;;;;;;;;;;5124583;27;20736;-17
2022/05/19 00:48:10;;;;;;;5.45;3.05;;;;;;;;;;5123717;27;20246;-17
2022/05/19 00:50:40;;;;;;;5.47;3.28;;;;;;;;;;5120734;27;20312;-17
2022/05/19 00:53:08;;;;;;;4.30;3.42;;;;;;;;;;5124384;27;20335;-19
2022/05/19 00:55:37;;;;;;;3.25;2.92;;;;;;;;;;5123448;27;20227;-17
2022/05/19 00:58:08;;;;;;;7.28;3.40;;;;;;;;;;5120881;27;20213;-17
2022/05/19 01:00:35;;;;;;;4.47;3.50;;;;;;;;;;5124713;27;20310;-17
2022/05/19 01:03:02;;;;;;;4.97;3.55;;;;;;;;;;5123973;27;20239;-16
2022/05/19 01:05:32;;;;;;;5.15;3.40;;;;;;;;;;5120958;27;20231;-17
2022/05/19 01:08:00;;;;;;;4.22;3.50;;;;;;;;;;5128250;27;20240;-16
2022/05/19 01:10:27;;;;;;;4.38;3.60;;;;;;;;;;5122736;27;20326;-17
2022/05/19 01:12:56;;;;;;;4.10;3.70;;;;;;;;;;5126834;27;20232;-16
2022/05/19 01:15:23;;;;;;;4.68;3.78;;;;;;;;;;5130814;27;20238;-16
2022/05/19 01:17:51;;;;;;;6.93;3.33;;;;;;;;;;5129292;27;20307;-16
2022/05/19 01:20:19;;;;;;;5.68;3.60;;;;;;;;;;5132108;27;20238;-17
2022/05/19 01:22:50;;;;;;;4.05;3.28;;;;;;;;;;5126175;27;20242;-17
2022/05/19 01:25:20;;;;;;;5.28;3.58;;;;;;;;;;5122477;27;20234;-16
2022/05/19 01:27:48;;;;;;;7.80;3.47;;;;;;;;;;5121531;27;20247;-16
2022/05/19 01:30:16;;;;;;;5.63;3.45;;;;;;;;;;5123389;27;20227;-17
2022/05/19 01:32:43;;;;;;;5.40;3.53;;;;;;;;;;5124097;27;21730;-17
2022/05/19 01:35:10;;;;;;;5.10;3.63;;;;;;;;;;5127646;27;20286;-17
2022/05/19 01:37:38;;;;;;;7.57;3.53;;;;;;;;;;5123592;27;20230;-16
2022/05/19 01:40:07;;;;;;;5.22;3.33;;;;;;;;;;5119720;27;20237;-17
2022/05/19 01:42:36;;;;;;;3.65;3.20;;;;;;;;;;5124087;27;20305;-16
2022/05/19 01:45:08;;;;;;;4.28;3.58;;;;;;;;;;5127048;27;20227;-17
2022/05/19 01:47:37;;;;;;;7.53;3.70;;;;;;;;;;5123614;27;20254;-16
2022/05/19 01:50:05;;;;;;;5.53;3.70;;;;;;;;;;5119877;27;20599;-17
2022/05/19 01:52:34;;;;;;;6.28;3.67;;;;;;;;;;5123385;27;20220;-17
2022/05/19 01:55:03;;;;;;;5.75;3.50;;;;;;;;;;5123530;27;20280;-17
2022/05/19 01:57:31;;;;;;;6.68;3.78;;;;;;;;;;5127989;27;20235;-17
2022/05/19 02:00:00;;;;;;;4.40;3.75;;;;;;;;;;5122852;27;20242;-17
2022/05/19 02:02:31;;;;;;;6.60;4.03;;;;;;;;;;5127497;27;20262;-17
2022/05/19 02:04:59;;;;;;;4.50;3.90;;;;;;;;;;5123037;27;20211;-17
2022/05/19 02:07:27;;;;;;;6.95;3.75;;;;;;;;;;5123995;27;20242;-16
2022/05/19 02:09:55;;;;;;;5.47;3.78;;;;;;;;;;5119054;27;20318;-17
2022/05/19 02:12:22;;;;;;;5.18;3.47;;;;;;;;;;5121749;27;20231;-17
2022/05/19 02:14:51;;;;;;;6.95;3.70;;;;;;;;;;5121325;27;20292;-17
2022/05/19 02:17:19;;;;;;;5.70;4.35;;;;;;;;;;5121573;27;20258;-17
2022/05/19 02:19:48;;;;;;;5.70;3.90;;;;;;;;;;5125754;27;20698;-16
2022/05/19 02:22:16;;;;;;;5.13;4.25;;;;;;;;;;5115396;22;20247;-18
2022/05/19 02:24:46;;;;;;;5.10;3.95;;;;;;;;;;5099070;28;20232;-18
2022/05/19 02:27:23;;;;;;;4.35;3.95;;;;;;;;;;5095725;28;20233;-18
2022/05/19 02:29:50;;;;;;;7.05;4.03;;;;;;;;;;5095920;28;20277;-19
2022/05/19 02:32:18;;;;;;;6.57;3.85;;;;;;;;;;5099281;27;20228;-18
2022/05/19 02:34:45;;;;;;;6.40;3.97;;;;;;;;;;5101885;28;20238;-18
2022/05/19 02:37:14;;;;;;;4.70;4.18;;;;;;;;;;5103277;28;20228;-19
2022/05/19 02:39:41;;;;;;;5.47;4.00;;;;;;;;;;5102357;28;20232;-19
2022/05/19 02:42:09;;;;;;;5.32;4.22;;;;;;;;;;5101625;28;20631;-18
2022/05/19 02:44:36;;;;;;;6.72;4.05;;;;;;;;;;5102244;28;20687;-18
2022/05/19 02:47:03;;;;;;;5.47;4.20;;;;;;;;;;5105672;28;20220;-19
2022/05/19 02:49:31;;;;;;;5.10;4.32;;;;;;;;;;5098406;28;20286;-18
2022/05/19 02:51:58;;;;;;;5.72;4.55;;;;;;;;;;5097429;28;20232;-17
2022/05/19 02:54:27;;;;;;;7.13;4.63;;;;;;;;;;5100915;28;21016;-18
2022/05/19 02:56:54;;;;;;;6.00;4.25;;;;;;;;;;5099048;28;20240;-18
2022/05/19 02:59:21;;;;;;;4.35;3.95;;;;;;;;;;5099488;28;20255;-18
2022/05/19 03:01:49;;;;;;;6.43;4.22;;;;;;;;;;5096931;28;20237;-18
2022/05/19 03:04:16;;;;;;;5.72;4.03;;;;;;;;;;5100193;27;20217;-18
2022/05/19 03:06:43;;;;;;;5.05;4.15;;;;;;;;;;5099163;28;20247;-19
2022/05/19 03:09:11;;;;;;;6.80;4.35;;;;;;;;;;5100703;28;20240;-18
2022/05/19 03:11:39;;;;;;;5.10;4.40;;;;;;;;;;5102068;28;20229;-18
2022/05/19 03:14:07;;;;;;;6.78;4.40;;;;;;;;;;5100858;28;20276;-18
2022/05/19 03:16:34;;;;;;;6.13;4.22;;;;;;;;;;5097677;28;20232;-18
2022/05/19 03:19:02;;;;;;;5.15;4.47;;;;;;;;;;5097625;28;20229;-18
2022/05/19 03:21:29;;;;;;;5.75;4.28;;;;;;;;;;5100779;28;20240;-18
2022/05/19 03:23:56;;;;;;;5.53;4.63;;;;;;;;;;5100065;28;20589;-18
2022/05/19 03:26:24;;;;;;;4.47;3.90;;;;;;;;;;5098884;28;20216;-18
2022/05/19 03:28:52;;;;;;;5.05;4.28;;;;;;;;;;5097788;28;20240;-18
2022/05/19 03:31:20;;;;;;;4.22;3.83;;;;;;;;;;5101089;28;20973;-18
2022/05/19 03:33:47;;;;;;;5.93;4.03;;;;;;;;;;5099202;28;20315;-18
2022/05/19 03:36:14;;;;;;;5.38;4.25;;;;;;;;;;5100172;28;20235;-19
2022/05/19 03:38:42;;;;;;;4.80;4.13;;;;;;;;;;5100515;28;20228;-18
2022/05/19 03:41:09;;;;;;;5.20;3.92;;;;;;;;;;5097794;28;20233;-18
2022/05/19 03:43:36;;;;;;;4.70;4.10;;;;;;;;;;5101228;28;20996;-18
2022/05/19 03:46:05;;;;;;;4.30;3.58;;;;;;;;;;5095821;28;20232;-19
2022/05/19 03:48:33;;;;;;;4.45;3.60;;;;;;;;;;5096252;28;21041;-19
2022/05/19 03:51:02;;;;;;;5.93;4.00;;;;;;;;;;5097470;28;20226;-18
2022/05/19 03:53:30;;;;;;;7.25;3.60;;;;;;;;;;5101210;28;20239;-18
2022/05/19 03:55:57;;;;;;;3.92;3.60;;;;;;;;;;5101291;28;20734;-18
2022/05/19 03:58:24;;;;;;;4.63;3.60;;;;;;;;;;5099381;28;20221;-18
2022/05/19 04:00:52;;;;;;;4.90;3.90;;;;;;;;;;5098364;28;20240;-18
2022/05/19 04:03:20;;;;;;;4.38;3.97;;;;;;;;;;5098862;28;20626;-19
2022/05/19 04:05:48;;;;;;;7.05;3.97;;;;;;;;;;5099346;28;20282;-18
2022/05/19 04:08:15;;;;;;;4.55;4.15;;;;;;;;;;5100499;28;20228;-19
2022/05/19 04:10:47;;;;;;;7.22;5.10;;;;;;;;;;5101033;28;20238;-19
2022/05/19 04:13:14;;;;;;;5.00;4.60;;;;;;;;;;5100958;28;20223;-18
2022/05/19 04:15:41;;;;;;;7.50;5.57;;;;;;;;;;5096254;28;20237;-18
2022/05/19 04:18:09;;;;;;;5.95;5.35;;;;;;;;;;5096144;28;20229;-18
2022/05/19 04:20:37;;;;;;;7.32;4.95;;;;;;;;;;5097030;28;20232;-19
2022/05/19 04:23:05;;;;;;;5.50;4.72;;;;;;;;;;5100911;28;20228;-19
2022/05/19 04:25:32;;;;;;;8.55;4.85;;;;;;;;;;5100838;28;20229;-19
2022/05/19 04:27:59;;;;;;;5.20;4.40;;;;;;;;;;5101143;28;21016;-18
2022/05/19 04:30:27;;;;;;;5.10;4.60;;;;;;;;;;5099346;28;20228;-17
2022/05/19 04:32:54;;;;;;;7.47;4.68;;;;;;;;;;5100631;28;20255;-18
2022/05/19 04:35:22;;;;;;;5.88;4.30;;;;;;;;;;5100581;28;20212;-18
2022/05/19 04:37:50;;;;;;;5.63;4.53;;;;;;;;;;5100327;28;20962;-18
2022/05/19 04:40:18;;;;;;;5.00;4.35;;;;;;;;;;5099855;28;20231;-18
2022/05/19 04:42:45;;;;;;;4.90;4.40;;;;;;;;;;5100856;28;20231;-18
2022/05/19 04:45:13;;;;;;;4.60;4.18;;;;;;;;;;5100398;28;20239;-18
2022/05/19 04:47:40;;;;;;;5.50;4.35;;;;;;;;;;5099632;28;20229;-18
2022/05/19 04:50:08;;;;;;;5.45;4.22;;;;;;;;;;5096234;28;20255;-18
2022/05/19 04:52:35;;;;;;;8.07;4.50;;;;;;;;;;5099289;28;20315;-18
2022/05/19 04:55:04;;;;;;;4.78;3.90;;;;;;;;;;5100000;27;20223;-18
2022/05/19 04:57:35;;;;;;;4.72;3.78;;;;;;;;;;5099358;28;20274;-18
2022/05/19 05:00:03;;;;;;;5.55;4.00;;;;;;;;;;5096009;28;20236;-18
2022/05/19 05:02:31;;;;;;;6.25;4.30;;;;;;;;;;5098801;28;20253;-18
2022/05/19 05:04:58;;;;;;;5.05;4.55;;;;;;;;;;5100612;28;20312;-18
2022/05/19 05:07:26;;;;;;;7.10;4.43;;;;;;;;;;5100186;28;20236;-17
2022/05/19 05:09:53;;;;;;;6.35;4.18;;;;;;;;;;5100372;28;20240;-17
2022/05/19 05:12:22;;;;;;;4.47;4.07;;;;;;;;;;5100108;28;20609;-19
2022/05/19 05:14:49;;;;;;;4.85;4.10;;;;;;;;;;5099017;28;20229;-17
2022/05/19 05:17:16;;;;;;;5.05;4.05;;;;;;;;;;5099432;28;20230;-19
2022/05/19 05:19:44;;;;;;;4.38;3.92;;;;;;;;;;5100204;28;20234;-17
2022/05/19 05:22:11;;;;;;;5.95;4.20;;;;;;;;;;5099156;28;20240;-18
2022/05/19 05:24:38;;;;;;;6.18;4.43;;;;;;;;;;5103175;28;20231;-17
2022/05/19 05:27:06;;;;;;;5.93;3.78;;;;;;;;;;5099175;28;20239;-18
2022/05/19 05:29:35;;;;;;;4.75;4.20;;;;;;;;;;5095867;28;20236;-18
2022/05/19 05:32:02;;;;;;;4.28;3.88;;;;;;;;;;5091776;28;20225;-17
2022/05/19 05:34:29;;;;;;;5.55;3.97;;;;;;;;;;5099905;28;20239;-18
2022/05/19 05:36:57;;;;;;;4.00;3.63;;;;;;;;;;5103364;28;20254;-19
2022/05/19 05:39:24;;;;;;;4.32;3.78;;;;;;;;;;5099752;28;20232;-20
2022/05/19 05:41:51;;;;;;;4.70;3.70;;;;;;;;;;5099705;28;20262;-19
2022/05/19 05:44:19;;;;;;;4.50;3.80;;;;;;;;;;5099937;28;20984;-19
2022/05/19 05:46:47;;;;;;;6.57;3.67;;;;;;;;;;5096029;28;20238;-19
2022/05/19 05:49:15;;;;;;;5.20;3.72;;;;;;;;;;5097947;28;20277;-19
2022/05/19 05:51:42;;;;;;;9.50;4.45;;;;;;;;;;5095368;28;20738;-18
2022/05/19 05:54:10;;;;;;;4.88;4.40;;;;;;;;;;5098670;28;20228;-18
2022/05/19 05:56:37;;;;;;;9.00;4.32;;;;;;;;;;5099637;28;20217;-18
2022/05/19 05:59:04;;;;;;;4.88;3.67;;;;;;;;;;5094882;28;20243;-18
2022/05/19 06:01:32;;;;;;;6.97;4.20;;;;;;;;;;5099276;28;20236;-17
2022/05/19 06:04:02;;;;;;;4.10;3.70;;;;;;;;;;5098376;28;20967;-19
2022/05/19 06:06:29;;;;;;;4.68;4.18;;;;;;;;;;5099843;28;20235;-19
2022/05/19 06:08:57;;;;;;;5.72;3.90;;;;;;;;;;5097895;28;20242;-17
2022/05/19 06:11:29;;;;;;;5.03;3.75;;;;;;;;;;5099145;28;20306;-19
2022/05/19 06:13:56;;;;;;;5.85;3.90;;;;;;;;;;5099331;28;20763;-19
2022/05/19 06:16:24;;;;;;;5.47;3.80;;;;;;;;;;5094771;28;20267;-19
2022/05/19 06:18:51;;;;;;;6.35;3.92;;;;;;;;;;5096771;28;20232;-19
2022/05/19 06:21:20;;;;;;;3.85;3.42;;;;;;;;;;5097466;28;20241;-18
2022/05/19 06:23:47;;;;;;;3.90;3.30;;;;;;;;;;5097058;28;20225;-19
2022/05/19 06:26:14;;;;;;;4.55;3.50;;;;;;;;;;5096023;28;21096;-19
2022/05/19 06:28:41;;;;;;;3.70;3.30;;;;;;;;;;5097770;28;20228;-19
2022/05/19 06:31:09;;;;;;;5.45;3.75;;;;;;;;;;5098281;28;20228;-19
2022/05/19 06:33:36;;;;;;;5.35;3.42;;;;;;;;;;5099182;28;20231;-19
2022/05/19 06:36:04;;;;;;;4.38;3.40;;;;;;;;;;5094392;28;20232;-19
2022/05/19 06:38:33;;;;;;;5.88;3.42;;;;;;;;;;5094530;28;20219;-19
2022/05/19 06:43:42;;;;;;;4.93;3.00;;;;;;;;;;5095681;28;20216;-19
2022/05/19 06:46:09;;;;;;;5.03;3.30;;;;;;;;;;5098388;28;20229;-19
2022/05/19 06:48:36;;;;;;;3.42;3.13;;;;;;;;;;5094721;28;20255;-19
2022/05/19 06:51:04;;;;;;;4.70;3.22;;;;;;;;;;5098353;28;20242;-19
2022/05/19 06:53:51;;;;;;;3.42;3.13;;;;;;;;;;5096507;28;20236;-19
2022/05/19 06:56:18;;;;;;;4.22;3.08;;;;;;;;;;5094318;28;20279;-18
2022/05/19 06:58:45;;;;;;;3.42;3.10;;;;;;;;;;5096100;28;20687;-19
2022/05/19 07:01:13;;;;;;;3.20;2.90;;;;;;;;;;5101229;28;20228;-19
2022/05/19 07:03:40;;;;;;;3.60;3.30;;;;;;;;;;5094103;28;20966;-19
2022/05/19 07:06:07;;;;;;;3.40;3.10;;;;;;;;;;5097360;28;20235;-19
2022/05/19 07:08:38;;;;;;;5.15;3.47;;;;;;;;;;5094301;28;20703;-19
2022/05/19 07:11:24;;;;;;;3.17;2.85;;;;;;;;;;5095067;28;20227;-19
2022/05/19 07:13:56;;;;;;;3.65;2.88;;;;;;;;;;5097915;28;20290;-19
2022/05/19 07:16:24;;;;;;;3.30;3.00;;;;;;;;;;5096465;28;20229;-19
2022/05/19 07:18:51;;;;;;;4.05;2.90;;;;;;;;;;5096189;28;20719;-19
2022/05/19 07:21:18;;;;;;;3.47;3.17;;;;;;;;;;5099514;28;20244;-19
2022/05/19 07:23:46;;;;;;;3.35;3.05;;;;;;;;;;5099250;28;20224;-19
2022/05/19 07:26:15;;;;;;;3.20;2.70;;;;;;;;;;5099592;28;20235;-19
2022/05/19 07:28:42;;;;;;;4.22;2.95;;;;;;;;;;5101872;28;20672;-18
2022/05/19 07:31:10;;;;;;;4.72;3.28;;;;;;;;;;5097091;28;20243;-19
2022/05/19 07:33:38;;;;;;;3.25;2.80;;;;;;;;;;5100963;28;20263;-18
2022/05/19 07:36:08;;;;;;;4.68;2.97;;;;;;;;;;5097595;28;20239;-19
2022/05/19 07:38:35;;;;;;;3.50;2.80;;;;;;;;;;5101171;28;20586;-19
2022/05/19 07:41:03;;;;;;;3.65;2.70;;;;;;;;;;5101115;27;20232;-19
2022/05/19 07:43:39;;;;;;;3.15;2.85;;;;;;;;;;5097657;28;20236;-19
2022/05/19 07:46:12;;;;;;;3.15;2.85;;;;;;;;;;5098843;28;20278;-19
2022/05/19 07:48:40;;;;;;;5.32;2.90;;;;;;;;;;5100450;28;20231;-19
2022/05/19 07:51:07;;;;;;;2.90;2.70;;;;;;;;;;5096960;28;20259;-18
2022/05/19 07:53:34;;;;;;;2.58;2.28;;;;;;;;;;5105144;28;20246;-19
2022/05/19 07:56:02;;;;;;;3.90;2.90;;;;;;;;;;5096643;28;20709;-18
2022/05/19 07:58:30;;;;;;;3.00;2.38;;;;;;;;;;5100848;28;20299;-18
2022/05/19 08:01:00;;;;;;;3.33;2.88;;;;;;;;;;5096974;28;20229;-19
2022/05/19 08:03:29;;;;;;;2.95;2.75;;;;;;;;;;5099851;28;20228;-19
2022/05/19 08:05:57;;;;;;;2.50;2.30;;;;;;;;;;5098237;28;20270;-18
2022/05/19 08:08:24;;;;;;;4.28;2.70;;;;;;;;;;5103644;28;20741;-19
2022/05/19 08:10:53;;;;;;;5.05;2.47;;;;;;;;;;5097553;28;20241;-19
2022/05/19 08:16:06;;;;;;;2.80;2.60;;;;;;;;;;5097254;28;20232;-19
2022/05/19 08:18:34;;;;;;;3.42;2.60;;;;;;;;;;5096503;28;20224;-19
2022/05/19 08:21:02;;;;;;;5.43;2.65;;;;;;;;;;5098809;28;20232;-19
2022/05/19 08:23:29;;;;;;;3.67;3.00;;;;;;;;;;5097160;28;20814;-19
2022/05/19 08:25:57;;;;;;;3.92;2.83;;;;;;;;;;5100829;28;20228;-19
2022/05/19 08:28:30;;;;;;;3.00;2.70;;;;;;;;;;5101089;28;20811;-18
2022/05/19 08:30:58;;;;;;;5.38;2.38;;;;;;;;;;5096105;28;20241;-19
2022/05/19 08:33:27;;;;;;;4.40;2.53;;;;;;;;;;5098399;28;20229;-19
2022/05/19 08:35:54;;;;;;;3.17;2.85;;;;;;;;;;5097734;28;20228;-19
2022/05/19 08:38:22;;;;;;;2.97;2.40;;;;;;;;;;5098792;28;20213;-19
2022/05/19 08:40:51;;;;;;;5.22;2.60;;;;;;;;;;5098341;28;20233;-18
2022/05/19 08:43:19;;;;;;;2.75;2.50;;;;;;;;;;5099887;28;20280;-19
2022/05/19 08:45:47;;;;;;;3.80;2.30;;;;;;;;;;5095232;28;20229;-19
2022/05/19 08:48:19;;;;;;;3.92;2.65;;;;;;;;;;5097766;28;21123;-19
2022/05/19 08:50:50;;;;;;;3.00;2.50;;;;;;;;;;5098697;28;20220;-19
2022/05/19 08:53:17;;;;;;;2.28;2.08;;;;;;;;;;5096649;28;20233;-19
2022/05/19 08:55:46;;;;;;;2.80;2.30;;;;;;;;;;5098792;28;20224;-20
2022/05/19 08:58:17;;;;;;;3.15;2.83;;;;;;;;;;5097075;28;20225;-19
2022/05/19 09:00:46;;;;;;;2.70;2.50;;;;;;;;;;5101971;28;20221;-19
2022/05/19 09:03:16;;;;;;;3.33;2.20;;;;;;;;;;5100446;28;20223;-19
2022/05/19 09:06:07;;;;;;;2.97;2.50;;;;;;;;;;5099822;28;20952;-19
2022/05/19 09:08:38;;;;;;;3.63;2.70;;;;;;;;;;5042479;27;20230;-19
2022/05/19 09:11:07;;;;;;;3.20;2.33;;;;;;;;;;5095982;28;20232;-19
2022/05/19 09:13:36;;;;;;;4.50;2.55;;;;;;;;;;5096020;28;20239;-19
2022/05/19 09:16:06;;;;;;;4.28;2.50;;;;;;;;;;5098841;28;20232;-18
2022/05/19 09:18:34;;;;;;;2.70;2.47;;;;;;;;;;5095471;28;20236;-19
2022/05/19 09:21:03;;;;;;;4.90;2.60;;;;;;;;;;5095659;28;20247;-19
2022/05/19 09:23:30;;;;;;;3.10;2.80;;;;;;;;;;5099011;28;20236;-19
2022/05/19 09:26:02;;;;;;;3.40;2.50;;;;;;;;;;5096371;28;20220;-19
2022/05/19 09:28:29;;;;;;;4.18;2.70;;;;;;;;;;5098364;28;20233;-18
2022/05/19 09:30:57;;;;;;;2.70;2.50;;;;;;;;;;5099635;28;20235;-19
2022/05/19 09:33:32;;;;;;;3.08;2.78;;;;;;;;;;5098431;28;20236;-19
2022/05/19 09:36:00;;;;;;;2.85;2.55;;;;;;;;;;5095429;28;21004;-19
2022/05/19 09:38:29;;;;;;;2.67;2.33;;;;;;;;;;5099263;28;20227;-19
2022/05/19 09:41:00;;;;;;;3.97;2.50;;;;;;;;;;5102386;28;20228;-19
2022/05/19 09:43:36;;;;;;;3.10;2.78;;;;;;;;;;5098534;28;20326;-19
2022/05/19 09:46:04;;;;;;;2.83;2.30;;;;;;;;;;5095425;28;20224;-19
2022/05/19 09:48:33;;;;;;;2.33;2.13;;;;;;;;;;5095401;28;20238;-19
2022/05/19 09:51:01;;;;;;;2.70;2.50;;;;;;;;;;5099733;28;20240;-19
2022/05/19 09:53:29;;;;;;;2.83;2.20;;;;;;;;;;5102558;28;20232;-19
2022/05/19 09:55:56;;;;;;;4.70;2.63;;;;;;;;;;5096238;28;20233;-19
2022/05/19 09:58:25;;;;;;;3.58;2.53;;;;;;;;;;5097828;28;20220;-19
2022/05/19 10:00:53;;;;;;;3.95;2.60;;;;;;;;;;5098990;28;21018;-19
2022/05/19 10:03:22;;;;;;;2.42;2.22;;;;;;;;;;5099485;28;20220;-19
2022/05/19 10:05:50;;;;;;;2.75;2.55;;;;;;;;;;5099508;28;20209;-19
2022/05/19 10:08:18;;;;;;;2.90;2.60;;;;;;;;;;5099318;28;20242;-19
2022/05/19 10:10:55;;;;;;;4.60;2.83;;;;;;;;;;5095787;28;20278;-19
2022/05/19 10:13:27;;;;;;;2.78;2.38;;;;;;;;;;5096461;28;20232;-19
2022/05/19 10:15:56;;;;;;;2.88;2.38;;;;;;;;;;5098785;28;20774;-18
2022/05/19 10:18:36;;;;;;;2.65;2.40;;;;;;;;;;5099572;28;20718;-19
2022/05/19 10:21:08;;;;;;;2.80;2.40;;;;;;;;;;5094414;28;20235;-18
2022/05/19 10:23:42;;;;;;;2.63;2.30;;;;;;;;;;5099189;28;20232;-19
2022/05/19 10:26:15;;;;;;;2.88;2.55;;;;;;;;;;5095482;28;20234;-19
2022/05/19 10:31:40;;;;;;;2.95;2.50;;;;;;;;;;5095044;28;20235;-19
2022/05/19 10:34:14;;;;;;;3.20;2.30;;;;;;;;;;5090827;28;20233;-18
2022/05/19 10:36:47;;;;;;;3.72;2.88;;;;;;;;;;5097427;28;20235;-18
2022/05/19 10:39:22;;;;;;;2.83;2.45;;;;;;;;;;5095715;28;20243;-19
2022/05/19 10:41:53;;;;;;;3.15;2.75;;;;;;;;;;5096863;28;20216;-18
2022/05/19 10:44:34;;;;;;;2.67;2.47;;;;;;;;;;5097988;28;20225;-19
2022/05/19 10:47:03;;;;;;;2.85;2.58;;;;;;;;;;5098614;28;20224;-19
2022/05/19 10:49:50;;;;;;;5.43;2.67;;;;;;;;;;5097952;28;20236;-19
2022/05/19 10:52:20;;;;;;;3.40;2.67;;;;;;;;;;5096073;28;20220;-19
2022/05/19 10:54:51;;;;;;;3.10;2.67;;;;;;;;;;5096447;27;20231;-18
2022/05/19 10:57:34;;;;;;;2.75;2.53;;;;;;;;;;5106221;27;20221;-19
2022/05/19 11:00:08;;;;;;;5.80;2.50;;;;;;;;;;5096536;28;20235;-18
2022/05/19 11:02:45;;;;;;;2.67;2.47;;;;;;;;;;5094737;28;20683;-18
2022/05/19 11:05:15;;;;;;;3.15;2.83;;;;;;;;;;5098255;28;20764;-19
2022/05/19 11:07:45;;;;;;;4.32;3.22;;;;;;;;;;5102150;28;20258;-19
2022/05/19 11:10:14;;;;;;;3.25;2.45;;;;;;;;;;5097880;28;20240;-19
2022/05/19 11:12:45;;;;;;;3.08;2.80;;;;;;;;;;5098454;28;20241;-19
2022/05/19 11:15:17;;;;;;;3.25;2.83;;;;;;;;;;5101132;28;20209;-19
2022/05/19 11:17:56;;;;;;;6.00;3.08;;;;;;;;;;5099011;28;20291;-19
2022/05/19 11:20:24;;;;;;;3.22;2.75;;;;;;;;;;5101880;28;20224;-19
2022/05/19 11:22:52;;;;;;;3.20;2.90;;;;;;;;;;5101613;28;20248;-19
2022/05/19 11:28:06;;;;;;;4.57;2.67;;;;;;;;;;5097477;28;20224;-19
2022/05/19 11:30:41;;;;;;;4.88;3.13;;;;;;;;;;5094254;28;20233;-19
2022/05/19 11:33:10;;;;;;;3.83;2.80;;;;;;;;;;5097651;28;20231;-19
2022/05/19 11:35:39;;;;;;;3.75;3.28;;;;;;;;;;5097421;28;20331;-19
2022/05/19 11:38:09;;;;;;;2.70;2.50;;;;;;;;;;5101012;27;20239;-19
2022/05/19 11:40:37;;;;;;;4.32;3.00;;;;;;;;;;5098027;28;20228;-19
2022/05/19 11:43:06;;;;;;;3.17;2.88;;;;;;;;;;5097208;28;20225;-19
2022/05/19 11:45:34;;;;;;;5.53;2.90;;;;;;;;;;5093363;28;20240;-18
2022/05/19 11:56:21;;;;;;;4.40;2.78;;;;;;;;;;5099984;28;20232;-19
2022/05/19 11:58:49;;;;;;;4.53;2.88;;;;;;;;;;5102877;28;20237;-19
2022/05/19 12:01:19;;;;;;;3.85;3.38;;;;;;;;;;5098502;28;20238;-18
2022/05/19 12:03:52;;;;;;;2.88;2.53;;;;;;;;;;5101155;28;21100;-19
2022/05/19 12:06:19;;;;;;;3.10;2.80;;;;;;;;;;5097946;27;21070;-19
2022/05/19 12:08:54;;;;;;;3.10;2.80;;;;;;;;;;5098565;28;20228;-18
2022/05/19 12:11:23;;;;;;;4.05;3.05;;;;;;;;;;5098223;28;20231;-19
2022/05/19 12:13:51;;;;;;;3.30;3.00;;;;;;;;;;5103104;28;20229;-19
2022/05/19 12:16:25;;;;;;;5.35;2.70;;;;;;;;;;5100939;28;20213;-19
2022/05/19 12:19:05;;;;;;;3.47;2.83;;;;;;;;;;5096894;28;20239;-19
2022/05/19 12:21:39;;;;;;;4.10;3.03;;;;;;;;;;5100616;28;20241;-19
2022/05/19 12:24:08;;;;;;;4.07;3.22;;;;;;;;;;5092859;28;20220;-19
2022/05/19 12:26:39;;;;;;;4.53;3.15;;;;;;;;;;5088775;28;20233;-18
2022/05/19 12:29:16;;;;;;;6.13;3.45;;;;;;;;;;5097255;28;20232;-19
2022/05/19 12:32:00;;;;;;;5.45;3.00;;;;;;;;;;5098792;28;20225;-18
2022/05/19 12:34:31;;;;;;;5.20;2.90;;;;;;;;;;5096216;28;20228;-19
2022/05/19 12:37:09;;;;;;;6.28;3.20;;;;;;;;;;5100812;28;20237;-18
2022/05/19 12:39:43;;;;;;;3.55;2.85;;;;;;;;;;5097314;28;20238;-19
2022/05/19 12:42:34;;;;;;;7.93;3.17;;;;;;;;;;5100568;28;20227;-19
2022/05/19 12:45:04;;;;;;;5.68;3.60;;;;;;;;;;5099420;28;20319;-18
2022/05/19 12:47:32;;;;;;;7.78;3.17;;;;;;;;;;5100438;27;20233;-19
2022/05/19 12:50:25;;;;;;;7.18;3.92;;;;;;;;;;5099540;28;20250;-19
2022/05/19 12:52:58;;;;;;;11.50;3.97;;;;;;;;;;5088520;27;20699;-19
2022/05/19 12:55:44;;;;;;;12.00;3.70;;;;;;;;;;5101612;28;20245;-18
2022/05/19 12:58:37;;;;;;;12.60;3.83;;;;;;;;;;5098145;28;20228;-19
2022/05/19 13:01:08;;;;;;;13.18;4.53;;;;;;;;;;5080764;28;20232;-19
2022/05/19 13:03:37;;;;;;;11.48;3.50;;;;;;;;;;5096408;28;20294;-19
2022/05/19 13:06:05;;;;;;;9.98;3.05;;;;;;;;;;5087934;28;20977;-19
2022/05/19 13:08:35;;;;;;;7.05;2.20;;;;;;;;;;5099634;28;20326;-19
2022/05/19 13:11:04;;;;;;;7.82;2.47;;;;;;;;;;5095258;28;20231;-19
2022/05/19 13:13:32;;;;;;;8.48;2.42;;;;;;;;;;5096134;28;20229;-19
2022/05/19 13:16:00;;;;;;;7.22;2.28;;;;;;;;;;5100148;28;21055;-19
2022/05/19 13:18:29;;;;;;;7.60;2.00;;;;;;;;;;5098846;28;20225;-19
2022/05/19 13:21:02;;;;;;;6.30;1.70;;;;;;;;;;5099853;28;20713;-19
2022/05/19 13:23:30;;;;;;;7.20;2.03;;;;;;;;;;5099732;28;20236;-19
2022/05/19 13:26:00;;;;;;;4.05;1.63;;;;;;;;;;5099567;28;20231;-19
2022/05/19 13:31:19;;;;;;;5.07;2.08;;;;;;;;;;5096807;28;20232;-18
2022/05/19 13:33:48;;;;;;;4.60;1.85;;;;;;;;;;5095453;28;20236;-19
2022/05/19 13:36:15;;;;;;;3.00;1.42;;;;;;;;;;5100171;28;20235;-19
2022/05/19 13:38:43;;;;;;;2.05;1.17;;;;;;;;;;5099833;28;21091;-19
2022/05/19 13:41:12;;;;;;;3.30;1.13;;;;;;;;;;5095628;28;20231;-18
2022/05/19 13:43:41;;;;;;;7.18;1.40;;;;;;;;;;5098783;28;20229;-19
2022/05/19 13:46:12;;;;;;;5.53;1.13;;;;;;;;;;5099095;28;20231;-19
2022/05/19 13:48:44;;;;;;;2.15;1.08;;;;;;;;;;5095910;28;20708;-19
2022/05/19 13:51:13;;;;;;;7.40;1.20;;;;;;;;;;5097219;28;20639;-18
2022/05/19 13:53:41;;;;;;;2.90;0.90;;;;;;;;;;5099987;28;20663;-19
2022/05/19 13:56:09;;;;;;;3.88;1.08;;;;;;;;;;5098784;28;21000;-19
2022/05/19 13:58:37;;;;;;;2.85;0.90;;;;;;;;;;5095251;28;20229;-19
2022/05/19 14:01:05;;;;;;;5.25;1.17;;;;;;;;;;5095529;28;20797;-19
2022/05/19 14:03:33;;;;;;;2.85;1.40;;;;;;;;;;5098889;28;20262;-19
2022/05/19 14:06:00;;;;;;;2.08;0.90;;;;;;;;;;5095531;28;20224;-18
2022/05/19 14:08:29;;;;;;;2.20;1.00;;;;;;;;;;5097892;28;20236;-19
2022/05/19 14:11:01;;;;;;;5.47;0.80;;;;;;;;;;5099655;28;20264;-19
2022/05/19 14:13:28;;;;;;;1.92;0.65;;;;;;;;;;5097771;28;20224;-18
2022/05/19 14:15:58;;;;;;;1.88;0.98;;;;;;;;;;5094154;28;20237;-19
2022/05/19 14:18:27;;;;;;;2.15;1.02;;;;;;;;;;5097055;28;20228;-19
2022/05/19 14:20:54;;;;;;;1.83;1.10;;;;;;;;;;5095799;28;20240;-19
2022/05/19 14:23:23;;;;;;;3.72;1.00;;;;;;;;;;5096318;28;20247;-19
2022/05/19 14:25:51;;;;;;;2.33;1.15;;;;;;;;;;5093753;28;20232;-18
2022/05/19 14:28:22;;;;;;;2.13;0.90;;;;;;;;;;5097057;28;20221;-18
2022/05/19 14:30:50;;;;;;;4.13;1.00;;;;;;;;;;5104092;28;21010;-19
2022/05/19 14:33:21;;;;;;;2.92;0.93;;;;;;;;;;5102714;28;20235;-19
2022/05/19 14:35:50;;;;;;;2.25;0.90;;;;;;;;;;5097606;28;20252;-19
2022/05/19 14:38:33;;;;;;;2.47;0.80;;;;;;;;;;5101941;28;20215;-19
2022/05/19 14:43:49;;;;;;;1.80;0.93;;;;;;;;;;5100363;28;20227;-19
2022/05/19 14:46:16;;;;;;;2.28;1.02;;;;;;;;;;5102113;28;20746;-18
2022/05/19 14:48:48;;;;;;;2.20;1.13;;;;;;;;;;5102475;28;20224;-18
2022/05/19 14:51:18;;;;;;;2.50;0.98;;;;;;;;;;5102713;28;20228;-19
2022/05/19 14:53:45;;;;;;;1.45;0.77;;;;;;;;;;5102321;28;20219;-19
2022/05/19 14:56:14;;;;;;;2.33;1.08;;;;;;;;;;5101254;28;20886;-19
2022/05/19 14:58:45;;;;;;;4.53;1.20;;;;;;;;;;5102277;28;20691;-19
2022/05/19 15:01:13;;;;;;;1.92;0.80;;;;;;;;;;5102301;28;20972;-19
2022/05/19 15:03:40;;;;;;;1.95;1.17;;;;;;;;;;5097880;28;20699;-18
2022/05/19 15:06:09;;;;;;;2.30;0.93;;;;;;;;;;5097490;28;20860;-18
2022/05/19 15:08:36;;;;;;;1.75;0.90;;;;;;;;;;5100905;28;20221;-19
2022/05/19 15:11:04;;;;;;;3.67;1.58;;;;;;;;;;5098000;28;20231;-19
2022/05/19 15:13:32;;;;;;;3.72;1.33;;;;;;;;;;5098132;28;21070;-18
2022/05/19 15:16:02;;;;;;;1.67;1.00;;;;;;;;;;5092485;28;20239;-18
2022/05/19 15:18:30;;;;;;;1.88;1.08;;;;;;;;;;5100038;28;20672;-18
2022/05/19 15:20:58;;;;;;;2.58;1.30;;;;;;;;;;5098413;28;20692;-18